createdAt,value
2023-03-19T00:01:23.096Z,12.13
2023-03-19T00:03:51.808Z,12.12
2023-03-19T00:06:20.012Z,12.09
2023-03-19T00:09:29.462Z,10.89
2023-03-19T00:11:57.744Z,12.04
2023-03-19T00:14:26.215Z,12.23
2023-03-19T00:16:56.380Z,12.32
2023-03-19T00:19:25.555Z,12.35
2023-03-19T00:21:54.643Z,12.35
2023-03-19T00:24:23.546Z,12.29
2023-03-19T00:26:52.324Z,12.26
2023-03-19T00:29:23.450Z,12.27
2023-03-19T00:31:51.853Z,12.24
2023-03-19T00:34:20.132Z,12.20
2023-03-19T00:36:50.684Z,12.21
2023-03-19T00:39:24.567Z,12.29
2023-03-19T00:41:52.755Z,12.36
2023-03-19T00:44:20.972Z,12.36
2023-03-19T00:46:49.093Z,12.37
2023-03-19T00:49:17.574Z,12.36
2023-03-19T00:51:47.295Z,12.34
2023-03-19T00:54:15.669Z,12.32
2023-03-19T00:56:44.252Z,12.29
2023-03-19T00:59:12.544Z,12.28
2023-03-19T01:01:42.128Z,12.31
2023-03-19T01:04:11.526Z,12.38
2023-03-19T01:06:39.945Z,12.44
2023-03-19T01:09:08.235Z,12.49
2023-03-19T01:11:37.305Z,12.51
2023-03-19T01:14:11.843Z,12.52
2023-03-19T01:16:40.949Z,12.55
2023-03-19T01:19:09.191Z,12.54
2023-03-19T01:21:38.078Z,12.54
2023-03-19T01:24:06.375Z,12.51
2023-03-19T01:26:36.378Z,12.46
2023-03-19T01:29:17.056Z,12.42
2023-03-19T01:31:45.424Z,12.44
2023-03-19T01:34:34.385Z,12.49
2023-03-19T01:37:13.912Z,12.50
2023-03-19T01:39:43.045Z,12.49
2023-03-19T01:42:13.859Z,12.45
2023-03-19T01:45:03.547Z,12.38
2023-03-19T01:48:20.206Z,12.30
2023-03-19T01:51:01.650Z,12.24
2023-03-19T01:53:56.054Z,12.16
2023-03-19T01:56:35.557Z,12.08
2023-03-19T01:59:17.581Z,11.99
2023-03-19T02:02:27.627Z,11.92
2023-03-19T02:05:03.609Z,11.90
2023-03-19T02:07:35.888Z,11.89
2023-03-19T02:10:07.329Z,11.88
2023-03-19T02:12:36.608Z,11.83
2023-03-19T02:15:13.259Z,11.75
2023-03-19T02:17:42.297Z,11.69
2023-03-19T02:20:27.964Z,11.63
2023-03-19T02:23:21.578Z,11.57
2023-03-19T02:26:04.490Z,11.51
2023-03-19T02:28:37.605Z,11.44
2023-03-19T02:31:07.145Z,11.42
2023-03-19T02:33:35.672Z,11.43
2023-03-19T02:36:06.808Z,11.44
2023-03-19T02:38:36.734Z,11.41
2023-03-19T02:41:08.589Z,11.38
2023-03-19T02:43:38.165Z,11.34
2023-03-19T02:46:08.771Z,11.30
2023-03-19T02:48:39.259Z,11.25
2023-03-19T02:51:08.837Z,11.19
2023-03-19T02:53:43.041Z,11.09
2023-03-19T02:56:13.021Z,11.01
2023-03-19T02:58:42.169Z,10.99
2023-03-19T03:01:10.687Z,11.03
2023-03-19T03:03:39.487Z,11.08
2023-03-19T03:06:07.723Z,11.11
2023-03-19T03:08:39.054Z,11.11
2023-03-19T03:11:07.996Z,11.10
2023-03-19T03:13:40.144Z,11.09
2023-03-19T03:16:08.838Z,11.08
2023-03-19T03:18:37.927Z,11.08
2023-03-19T03:21:06.712Z,11.07
2023-03-19T03:23:36.912Z,11.07
2023-03-19T03:26:06.971Z,11.11
2023-03-19T03:28:37.057Z,11.16
2023-03-19T03:31:05.902Z,11.21
2023-03-19T03:33:34.249Z,11.24
2023-03-19T03:36:04.113Z,11.26
2023-03-19T03:38:33.076Z,11.26
2023-03-19T03:41:01.661Z,11.26
2023-03-19T03:43:30.166Z,11.25
2023-03-19T03:45:59.906Z,11.24
2023-03-19T03:48:28.791Z,11.24
2023-03-19T03:50:57.310Z,11.23
2023-03-19T03:53:28.454Z,11.23
2023-03-19T03:55:56.735Z,11.29
2023-03-19T03:58:26.242Z,11.36
2023-03-19T04:00:55.803Z,11.39
2023-03-19T04:03:24.824Z,11.37
2023-03-19T04:05:53.441Z,11.33
2023-03-19T04:08:23.722Z,11.33
2023-03-19T04:10:52.034Z,11.34
2023-03-19T04:13:20.495Z,11.33
2023-03-19T04:15:50.656Z,11.33
2023-03-19T04:18:19.631Z,11.38
2023-03-19T04:20:48.011Z,11.48
2023-03-19T04:23:17.113Z,11.54
2023-03-19T04:25:46.921Z,11.57
2023-03-19T04:28:20.522Z,11.60
2023-03-19T04:30:48.890Z,11.59
2023-03-19T04:33:18.650Z,11.60
2023-03-19T04:35:47.700Z,11.61
2023-03-19T04:38:16.830Z,11.61
2023-03-19T04:40:46.831Z,11.60
2023-03-19T04:43:15.880Z,11.61
2023-03-19T04:45:44.665Z,11.64
2023-03-19T04:48:17.256Z,11.73
2023-03-19T04:50:47.416Z,11.77
2023-03-19T04:53:20.171Z,11.77
2023-03-19T04:55:48.545Z,11.78
2023-03-19T04:58:19.142Z,11.78
2023-03-19T05:00:52.913Z,11.81
2023-03-19T05:03:24.876Z,11.83
2023-03-19T05:05:55.336Z,11.84
2023-03-19T05:08:24.196Z,11.82
2023-03-19T05:10:52.778Z,11.77
2023-03-19T05:13:42.549Z,11.81
2023-03-19T05:16:28.042Z,11.90
2023-03-19T05:18:56.932Z,11.91
2023-03-19T05:21:26.967Z,11.92
2023-03-19T05:23:57.483Z,11.94
2023-03-19T05:26:26.530Z,11.93
2023-03-19T05:29:14.910Z,11.94
2023-03-19T05:32:10.489Z,12.00
2023-03-19T05:34:40.982Z,11.99
2023-03-19T05:37:09.794Z,12.08
2023-03-19T05:39:38.865Z,12.15
2023-03-19T05:42:09.608Z,12.19
2023-03-19T05:44:38.195Z,12.17
2023-03-19T05:47:27.316Z,12.21
2023-03-19T05:49:57.887Z,12.28
2023-03-19T05:52:26.464Z,12.33
2023-03-19T05:54:57.711Z,12.39
2023-03-19T05:57:40.740Z,12.41
2023-03-19T06:00:19.550Z,12.50
2023-03-19T06:02:49.919Z,12.59
2023-03-19T06:05:42.672Z,12.67
2023-03-19T06:08:19.266Z,12.73
2023-03-19T06:11:00.395Z,12.77
2023-03-19T06:13:31.126Z,12.80
2023-03-19T06:16:08.339Z,12.82
2023-03-19T06:18:43.485Z,12.84
2023-03-19T06:21:13.466Z,12.89
2023-03-19T06:23:41.850Z,12.97
2023-03-19T06:26:17.710Z,13.06
2023-03-19T06:28:53.295Z,13.16
2023-03-19T06:31:22.187Z,13.27
2023-03-19T06:34:04.985Z,13.39
2023-03-19T06:36:40.273Z,13.49
2023-03-19T06:39:16.745Z,13.54
2023-03-19T06:41:47.232Z,13.59
2023-03-19T06:44:18.969Z,13.65
2023-03-19T06:46:48.452Z,13.67
2023-03-19T06:49:17.206Z,13.73
2023-03-19T06:51:45.747Z,13.89
2023-03-19T06:54:14.025Z,14.08
2023-03-19T06:56:42.845Z,14.26
2023-03-19T06:59:16.217Z,14.43
2023-03-19T07:01:45.033Z,14.54
2023-03-19T07:04:13.221Z,14.59
2023-03-19T07:06:41.555Z,14.66
2023-03-19T07:09:10.888Z,14.79
2023-03-19T07:11:39.236Z,14.93
2023-03-19T07:14:07.575Z,15.05
2023-03-19T07:16:36.528Z,15.13
2023-03-19T07:19:06.200Z,15.22
2023-03-19T07:21:34.910Z,15.29
2023-03-19T07:24:03.297Z,15.31
2023-03-19T07:26:36.034Z,15.40
2023-03-19T07:29:04.995Z,15.49
2023-03-19T07:31:33.366Z,15.57
2023-03-19T07:34:06.702Z,15.53
2023-03-19T07:36:37.277Z,15.48
2023-03-19T07:39:05.560Z,15.53
2023-03-19T07:41:34.306Z,15.61
2023-03-19T07:44:04.051Z,15.65
2023-03-19T07:46:34.270Z,15.43
2023-03-19T07:49:02.461Z,15.25
2023-03-19T07:51:31.035Z,15.15
2023-03-19T07:54:07.096Z,15.18
2023-03-19T07:56:37.539Z,15.20
2023-03-19T07:59:07.043Z,15.32
2023-03-19T08:01:36.711Z,15.47
2023-03-19T08:04:06.019Z,15.70
2023-03-19T08:06:40.256Z,15.96
2023-03-19T08:09:08.532Z,16.01
2023-03-19T08:11:37.229Z,15.94
2023-03-19T08:14:05.287Z,16.04
2023-03-19T08:16:33.747Z,16.18
2023-03-19T08:19:02.580Z,16.24
2023-03-19T08:21:33.815Z,16.10
2023-03-19T08:24:04.781Z,15.78
2023-03-19T08:26:33.540Z,15.29
2023-03-19T08:29:04.432Z,15.03
2023-03-19T08:31:34.077Z,14.96
2023-03-19T08:34:05.138Z,14.96
2023-03-19T08:36:34.645Z,14.99
2023-03-19T08:39:04.274Z,15.04
2023-03-19T08:41:33.741Z,15.18
2023-03-19T08:44:02.150Z,15.33
2023-03-19T08:46:31.425Z,15.52
2023-03-19T08:49:05.968Z,15.70
2023-03-19T08:51:34.499Z,15.79
2023-03-19T08:54:03.470Z,15.91
2023-03-19T08:56:32.226Z,16.02
2023-03-19T08:59:01.943Z,16.05
2023-03-19T09:01:30.917Z,15.84
2023-03-19T09:03:59.107Z,15.68
2023-03-19T09:06:27.418Z,15.71
2023-03-19T09:08:58.837Z,15.73
2023-03-19T09:11:27.742Z,15.76
2023-03-19T09:13:56.928Z,15.81
2023-03-19T09:16:26.431Z,15.78
2023-03-19T09:19:02.549Z,15.80
2023-03-19T09:21:31.939Z,15.76
2023-03-19T09:24:00.586Z,15.53
2023-03-19T09:26:29.200Z,15.26
2023-03-19T09:28:57.968Z,15.11
2023-03-19T09:31:29.792Z,15.14
2023-03-19T09:33:58.518Z,15.36
2023-03-19T09:36:27.103Z,15.61
2023-03-19T09:38:56.545Z,15.85
2023-03-19T09:41:49.465Z,16.08
2023-03-19T09:44:47.331Z,16.35
2023-03-19T09:47:32.518Z,16.55
2023-03-19T09:50:20.457Z,16.64
2023-03-19T09:52:52.103Z,16.56
2023-03-19T09:55:42.977Z,16.63
2023-03-19T09:58:17.798Z,16.75
2023-03-19T10:00:52.908Z,16.87
2023-03-19T10:03:49.626Z,16.97
2023-03-19T10:06:29.684Z,16.99
2023-03-19T10:09:26.527Z,17.02
2023-03-19T10:12:22.932Z,17.16
2023-03-19T10:15:00.873Z,17.34
2023-03-19T10:17:32.724Z,17.47
2023-03-19T10:20:13.103Z,17.64
2023-03-19T10:23:04.407Z,17.54
2023-03-19T10:25:34.032Z,17.25
2023-03-19T10:28:12.265Z,17.15
2023-03-19T10:30:41.969Z,17.13
2023-03-19T10:33:22.845Z,17.02
2023-03-19T10:36:14.032Z,16.93
2023-03-19T10:38:43.662Z,16.70
2023-03-19T10:41:23.919Z,16.57
2023-03-19T10:43:59.010Z,16.49
2023-03-19T10:46:38.898Z,16.56
2023-03-19T10:49:14.658Z,16.68
2023-03-19T10:51:47.836Z,16.80
2023-03-19T10:54:24.545Z,16.94
2023-03-19T10:56:56.065Z,17.14
2023-03-19T10:59:32.231Z,17.35
2023-03-19T11:02:21.706Z,17.50
2023-03-19T11:05:09.487Z,17.60
2023-03-19T11:07:38.024Z,17.50
2023-03-19T11:10:14.110Z,17.41
2023-03-19T11:12:47.963Z,17.29
2023-03-19T11:15:23.885Z,17.22
2023-03-19T11:18:00.928Z,17.33
2023-03-19T11:20:34.161Z,17.53
2023-03-19T11:23:14.483Z,17.77
2023-03-19T11:25:53.081Z,17.99
2023-03-19T11:28:26.311Z,18.16
2023-03-19T11:31:20.543Z,18.14
2023-03-19T11:34:08.619Z,18.15
2023-03-19T11:36:48.781Z,18.13
2023-03-19T11:39:54.746Z,17.94
2023-03-19T11:43:06.132Z,17.94
2023-03-19T11:46:00.019Z,17.95
2023-03-19T11:49:13.357Z,17.71
2023-03-19T11:51:51.788Z,17.47
2023-03-19T11:54:28.440Z,17.33
2023-03-19T11:57:01.163Z,17.21
2023-03-19T11:59:36.687Z,17.20
2023-03-19T12:02:26.970Z,17.20
2023-03-19T12:05:01.713Z,17.17
2023-03-19T12:08:06.629Z,17.11
2023-03-19T12:10:54.156Z,17.10
2023-03-19T12:13:44.654Z,17.29
2023-03-19T12:16:45.722Z,17.50
2023-03-19T12:19:41.529Z,17.71
2023-03-19T12:22:28.955Z,17.91
2023-03-19T12:28:19.605Z,16.87
2023-03-19T12:31:27.989Z,17.77
2023-03-19T12:34:15.126Z,17.80
2023-03-19T12:37:07.458Z,17.82
2023-03-19T12:39:38.211Z,17.68
2023-03-19T12:42:06.525Z,17.67
2023-03-19T12:51:21.808Z,18.36
2023-03-19T12:53:53.040Z,18.40
2023-03-19T12:56:29.734Z,18.35
2023-03-19T12:59:01.535Z,18.38
2023-03-19T13:01:34.280Z,18.48
2023-03-19T13:04:07.387Z,18.58
2023-03-19T13:06:52.799Z,18.69
2023-03-19T13:09:27.866Z,18.70
2023-03-19T13:12:02.173Z,18.54
2023-03-19T13:15:04.665Z,18.33
2023-03-19T13:18:12.272Z,18.00
2023-03-19T13:21:18.886Z,17.97
2023-03-19T13:23:48.401Z,17.94
2023-03-19T13:26:17.031Z,17.89
2023-03-19T13:28:59.854Z,17.76
2023-03-19T13:31:29.159Z,17.69
2023-03-19T13:34:18.340Z,17.74
2023-03-19T13:36:48.951Z,17.86
2023-03-19T13:39:28.239Z,17.98
2023-03-19T13:42:22.886Z,18.11
2023-03-19T13:45:03.751Z,18.24
2023-03-19T13:47:33.090Z,18.31
2023-03-19T13:50:16.371Z,18.24
2023-03-19T13:52:48.457Z,17.99
2023-03-19T13:55:31.236Z,17.92
2023-03-19T13:58:12.867Z,17.96
2023-03-19T14:00:45.347Z,17.90
2023-03-19T14:03:24.258Z,17.86
2023-03-19T14:05:53.922Z,17.80
2023-03-19T14:08:33.860Z,17.85
2023-03-19T14:11:03.338Z,17.92
2023-03-19T14:13:32.742Z,17.91
2023-03-19T14:16:06.950Z,17.95
2023-03-19T14:18:41.203Z,18.00
2023-03-19T14:21:21.392Z,18.07
2023-03-19T14:23:55.026Z,18.15
2023-03-19T14:26:24.884Z,18.22
2023-03-19T14:29:05.013Z,18.26
2023-03-19T14:31:43.417Z,18.24
2023-03-19T14:34:11.942Z,18.17
2023-03-19T14:36:46.407Z,18.17
2023-03-19T14:39:25.218Z,18.19
2023-03-19T14:42:07.468Z,18.21
2023-03-19T14:44:54.995Z,18.24
2023-03-19T14:47:24.906Z,18.27
2023-03-19T14:50:44.486Z,18.28
2023-03-19T14:53:38.209Z,18.26
2023-03-19T14:56:19.442Z,18.24
2023-03-19T14:58:54.556Z,18.24
2023-03-19T15:01:27.324Z,18.25
2023-03-19T15:04:00.576Z,18.25
2023-03-19T15:06:33.148Z,18.26
2023-03-19T15:09:02.780Z,18.23
2023-03-19T15:11:48.226Z,18.17
2023-03-19T15:14:50.717Z,18.22
2023-03-19T15:17:24.579Z,18.16
2023-03-19T15:19:52.903Z,18.13
2023-03-19T15:22:23.753Z,18.10
2023-03-19T15:24:53.037Z,18.09
2023-03-19T15:27:23.123Z,18.07
2023-03-19T15:29:52.005Z,18.04
2023-03-19T15:35:33.996Z,17.97
2023-03-19T15:38:06.754Z,17.93
2023-03-19T15:40:35.270Z,17.91
2023-03-19T15:51:03.469Z,17.75
2023-03-19T15:53:31.350Z,17.69
2023-03-19T15:55:59.970Z,17.68
2023-03-19T15:58:28.612Z,17.67
2023-03-19T16:00:55.659Z,17.64
2023-03-19T16:03:28.554Z,17.61
2023-03-19T16:06:01.342Z,17.56
2023-03-19T16:08:32.885Z,17.51
2023-03-19T16:11:27.374Z,17.44
2023-03-19T16:13:59.273Z,17.38
2023-03-19T16:16:31.688Z,17.32
2023-03-19T16:19:00.817Z,17.25
2023-03-19T16:21:37.898Z,17.20
2023-03-19T16:24:08.231Z,17.14
2023-03-19T16:26:39.984Z,17.09
2023-03-19T16:29:23.793Z,17.01
